createdAt,value
2022-10-31T00:01:39.496Z,101415.16
2022-10-31T00:04:07.573Z,101435.41
2022-10-31T00:06:35.323Z,101424.22
2022-10-31T00:09:05.067Z,101428.63
2022-10-31T00:11:34.948Z,101432.16
2022-10-31T00:14:07.009Z,101422.31
2022-10-31T00:16:45.077Z,101425.63
2022-10-31T00:19:12.959Z,101424.69
2022-10-31T00:21:40.935Z,101427.47
2022-10-31T00:24:09.018Z,101425.69
2022-10-31T00:26:36.773Z,101423.22
2022-10-31T00:29:07.329Z,101432.16
2022-10-31T00:31:35.063Z,101425.84
2022-10-31T00:34:04.074Z,101426.66
2022-10-31T00:36:31.924Z,101422.00
2022-10-31T00:38:59.927Z,101418.38
2022-10-31T00:41:27.692Z,101422.69
2022-10-31T00:43:56.799Z,101429.13
2022-10-31T00:46:24.521Z,101423.06
2022-10-31T00:48:52.239Z,101417.50
2022-10-31T00:51:19.994Z,101420.78
2022-10-31T00:53:47.721Z,101425.19
2022-10-31T00:56:15.691Z,101427.94
2022-10-31T00:58:43.736Z,101423.47
2022-10-31T01:01:11.538Z,101425.22
2022-10-31T01:03:40.974Z,101417.19
2022-10-31T01:06:14.060Z,101418.03
2022-10-31T01:08:41.994Z,101420.13
2022-10-31T01:11:24.431Z,101423.75
2022-10-31T01:13:54.163Z,101418.66
2022-10-31T01:16:24.685Z,101407.94
2022-10-31T01:18:57.579Z,101411.34
2022-10-31T01:21:29.609Z,101415.56
2022-10-31T01:24:03.281Z,101419.00
2022-10-31T01:26:33.113Z,101401.13
2022-10-31T01:29:04.678Z,101411.16
2022-10-31T01:31:38.748Z,101405.94
2022-10-31T01:34:07.928Z,101405.84
2022-10-31T01:36:38.848Z,101399.56
2022-10-31T01:39:09.828Z,101408.63
2022-10-31T01:41:44.628Z,101399.06
2022-10-31T01:44:15.310Z,101402.63
2022-10-31T01:47:00.488Z,101388.47
2022-10-31T07:36:49.520Z,101474.06
2022-10-31T07:40:19.848Z,101479.94
2022-10-31T07:58:08.256Z,101509.22
2022-10-31T08:03:00.025Z,101501.56
2022-10-31T08:12:02.994Z,101516.84
2022-10-31T08:14:35.425Z,101519.56
2022-10-31T08:17:07.561Z,101513.06
2022-10-31T08:19:55.643Z,101520.38
2022-10-31T08:23:13.218Z,101512.97
2022-10-31T08:25:51.287Z,101518.78
2022-10-31T08:31:42.591Z,101512.72
2022-10-31T08:34:38.230Z,101520.56
2022-10-31T08:37:24.146Z,101527.31
2022-10-31T08:39:55.010Z,101522.09
2022-10-31T08:42:23.261Z,101536.25
2022-10-31T08:44:51.152Z,101537.31
2022-10-31T08:47:22.072Z,101541.94
2022-10-31T08:49:49.658Z,101540.44
2022-10-31T08:52:17.219Z,101540.78
2022-10-31T08:54:47.807Z,101540.00
2022-10-31T08:57:34.126Z,101549.38
2022-10-31T09:00:01.801Z,101533.91
2022-10-31T09:02:47.917Z,101532.00
2022-10-31T09:05:15.578Z,101538.31
2022-10-31T09:07:43.268Z,101529.78
2022-10-31T09:10:10.761Z,101532.25
2022-10-31T09:12:39.327Z,101528.50
2022-10-31T09:15:29.914Z,101526.53
2022-10-31T09:18:11.929Z,101535.59
2022-10-31T09:20:48.141Z,101528.88
2022-10-31T09:23:23.787Z,101531.50
2022-10-31T09:25:52.784Z,101530.16
2022-10-31T09:28:38.516Z,101514.81
2022-10-31T09:31:16.670Z,101527.69
2022-10-31T09:34:02.630Z,101516.69
2022-10-31T09:36:54.037Z,101515.22
2022-10-31T09:39:25.085Z,101512.00
2022-10-31T09:42:07.070Z,101525.88
2022-10-31T09:44:45.317Z,101521.59
2022-10-31T09:47:35.536Z,101510.69
2022-10-31T09:50:34.012Z,101505.44
2022-10-31T09:53:29.256Z,101506.34
2022-10-31T09:55:58.349Z,101506.44
2022-10-31T09:58:29.450Z,101512.59
2022-10-31T10:01:01.610Z,101510.69
2022-10-31T10:03:47.255Z,101505.16
2022-10-31T10:06:40.429Z,101504.94
2022-10-31T10:09:37.555Z,101517.47
2022-10-31T10:12:43.333Z,101516.88
2022-10-31T10:15:19.813Z,101518.56
2022-10-31T10:18:01.860Z,101510.09
2022-10-31T10:20:29.412Z,101508.63
2022-10-31T10:23:42.173Z,101506.63
2022-10-31T10:26:21.630Z,101498.00
2022-10-31T10:29:31.395Z,101498.56
2022-10-31T10:32:31.337Z,101492.22
2022-10-31T10:39:56.921Z,101494.19
2022-10-31T10:43:04.745Z,101488.97
2022-10-31T10:49:53.384Z,101489.72
2022-10-31T10:52:44.599Z,101488.69
2022-10-31T10:55:38.337Z,101479.72
2022-10-31T10:58:09.211Z,101482.72
2022-10-31T11:01:12.667Z,101482.66
2022-10-31T11:03:43.731Z,101482.66
2022-10-31T11:06:27.663Z,101474.56
2022-10-31T11:08:55.428Z,101470.38
2022-10-31T11:11:32.001Z,101465.69
2022-10-31T11:14:06.454Z,101463.69
2022-10-31T11:16:41.243Z,101458.84
2022-10-31T11:19:41.968Z,101463.63
2022-10-31T11:22:17.493Z,101466.44
2022-10-31T11:24:45.292Z,101463.88
2022-10-31T11:27:16.975Z,101453.28
2022-10-31T11:29:45.710Z,101453.41
2022-10-31T11:32:27.134Z,101460.16
2022-10-31T11:35:00.586Z,101447.97
2022-10-31T11:37:30.952Z,101443.44
2022-10-31T11:40:01.442Z,101458.75
2022-10-31T11:42:36.049Z,101455.56
2022-10-31T11:45:15.328Z,101453.59
2022-10-31T11:47:47.652Z,101453.41
2022-10-31T11:50:39.681Z,101441.56
2022-10-31T11:53:17.485Z,101448.03
2022-10-31T11:56:21.199Z,101444.06
2022-10-31T11:59:18.389Z,101429.66
2022-10-31T12:01:51.493Z,101437.75
2022-10-31T12:04:22.259Z,101424.53
2022-10-31T12:06:51.966Z,101438.53
2022-10-31T12:13:29.923Z,101419.66
2022-10-31T12:16:06.587Z,101409.19
2022-10-31T12:18:43.636Z,101413.72
2022-10-31T12:21:42.241Z,101407.56
2022-10-31T12:24:32.943Z,101412.28
2022-10-31T12:27:09.471Z,101416.19
2022-10-31T12:30:11.167Z,101408.84
2022-10-31T12:32:55.869Z,101405.13
2022-10-31T12:35:41.181Z,101398.03
2022-10-31T12:38:31.531Z,101401.31
2022-10-31T12:41:15.927Z,101387.72
2022-10-31T12:43:49.787Z,101382.19
2022-10-31T12:46:46.318Z,101378.19
2022-10-31T12:49:54.405Z,101373.50
2022-10-31T12:52:50.486Z,101361.69
2022-10-31T12:55:39.039Z,101360.59
2022-10-31T12:58:25.514Z,101360.34
2022-10-31T13:01:10.929Z,101349.38
2022-10-31T13:03:47.405Z,101362.84
2022-10-31T13:06:22.242Z,101357.13
2022-10-31T13:08:55.489Z,101365.22
2022-10-31T13:11:31.786Z,101355.06
2022-10-31T13:14:16.160Z,101353.34
2022-10-31T13:16:51.129Z,101348.75
2022-10-31T13:19:36.310Z,101344.84
2022-10-31T13:22:12.622Z,101355.88
2022-10-31T13:24:53.262Z,101358.28
2022-10-31T13:27:37.240Z,101349.34
2022-10-31T13:30:07.452Z,101356.06
2022-10-31T13:32:44.676Z,101341.91
2022-10-31T13:35:20.438Z,101342.47
2022-10-31T13:38:15.753Z,101347.31
2022-10-31T13:41:16.426Z,101336.84
2022-10-31T13:44:05.358Z,101347.81
2022-10-31T13:46:32.854Z,101346.09
2022-10-31T13:49:00.981Z,101346.56
2022-10-31T13:51:46.280Z,101330.72
2022-10-31T13:54:32.606Z,101335.00
2022-10-31T13:57:00.837Z,101332.84
2022-10-31T13:59:30.381Z,101326.69
2022-10-31T14:02:02.027Z,101330.72
2022-10-31T14:04:46.269Z,101325.44
2022-10-31T14:07:22.016Z,101329.56
2022-10-31T14:09:56.700Z,101328.13
2022-10-31T14:12:44.154Z,101327.34
2022-10-31T14:15:21.244Z,101316.22
2022-10-31T14:17:52.606Z,101318.91
2022-10-31T14:20:20.668Z,101326.03
2022-10-31T14:22:48.282Z,101318.78
2022-10-31T14:25:34.333Z,101323.28
2022-10-31T14:28:18.542Z,101326.25
2022-10-31T14:30:54.464Z,101332.22
2022-10-31T14:33:25.354Z,101326.50
2022-10-31T14:36:01.782Z,101322.63
2022-10-31T14:38:37.220Z,101331.03
2022-10-31T14:41:33.330Z,101325.00
2022-10-31T14:44:22.599Z,101317.81
2022-10-31T14:47:32.596Z,101321.88
2022-10-31T14:50:39.435Z,101328.28
2022-10-31T14:53:14.853Z,101317.13
2022-10-31T14:55:49.629Z,101313.19
2022-10-31T14:58:40.521Z,101314.59
2022-10-31T15:01:08.845Z,101302.97
2022-10-31T15:03:44.758Z,101306.41
2022-10-31T15:06:26.669Z,101304.91
2022-10-31T15:08:58.264Z,101320.09
2022-10-31T15:11:27.722Z,101314.13
2022-10-31T15:13:57.655Z,101313.38
2022-10-31T15:19:03.685Z,101302.53
2022-10-31T15:21:32.480Z,101310.91
2022-10-31T15:24:02.790Z,101307.59
2022-10-31T15:26:38.889Z,101302.25
2022-10-31T15:29:15.785Z,101301.88
2022-10-31T15:32:16.811Z,101292.56
2022-10-31T15:34:45.224Z,101294.09
2022-10-31T15:37:15.769Z,101295.47
2022-10-31T15:39:44.699Z,101304.66
2022-10-31T15:42:33.949Z,101303.50
2022-10-31T15:45:06.393Z,101302.53
2022-10-31T15:47:34.652Z,101287.88
2022-10-31T15:50:04.252Z,101291.16
2022-10-31T15:52:48.012Z,101298.22
2022-10-31T15:55:24.296Z,101298.06
2022-10-31T15:58:05.847Z,101295.72
2022-10-31T16:00:36.242Z,101304.69
2022-10-31T16:03:06.145Z,101295.53
2022-10-31T16:06:00.624Z,101299.63
2022-10-31T16:08:30.940Z,101314.41
2022-10-31T16:11:07.297Z,101315.38
2022-10-31T16:13:39.096Z,101299.91
2022-10-31T16:16:45.888Z,101294.25
2022-10-31T16:19:06.225Z,101311.09
2022-10-31T16:21:39.405Z,101307.25
2022-10-31T16:24:31.937Z,101317.41
2022-10-31T16:27:08.431Z,101324.19
2022-10-31T16:29:47.305Z,101325.28
2022-10-31T16:32:37.726Z,101335.94
2022-10-31T16:35:11.079Z,101338.94
2022-10-31T16:37:42.251Z,101329.56
2022-10-31T16:40:14.974Z,101325.66
2022-10-31T16:42:44.332Z,101328.53
2022-10-31T16:45:19.623Z,101339.00
2022-10-31T16:47:47.925Z,101340.81
2022-10-31T16:50:24.504Z,101343.44
2022-10-31T16:53:13.727Z,101350.72
2022-10-31T16:55:47.610Z,101356.38
2022-10-31T16:58:24.191Z,101359.59
2022-10-31T17:00:53.525Z,101356.78
2022-10-31T17:03:21.341Z,101356.50
2022-10-31T17:05:49.054Z,101366.41
2022-10-31T17:08:16.752Z,101365.59
2022-10-31T17:10:46.182Z,101361.91
2022-10-31T17:13:39.837Z,101369.91
2022-10-31T17:16:07.659Z,101363.22
2022-10-31T17:18:35.490Z,101373.66
2022-10-31T17:21:06.247Z,101362.25
2022-10-31T17:23:33.825Z,101365.38
2022-10-31T17:26:01.366Z,101359.16
2022-10-31T17:28:28.947Z,101362.25
2022-10-31T17:30:59.213Z,101364.84
2022-10-31T17:33:27.015Z,101365.88
2022-10-31T17:35:56.824Z,101362.16
2022-10-31T17:38:24.646Z,101374.06
2022-10-31T17:40:52.187Z,101364.88
2022-10-31T17:43:19.839Z,101374.22
2022-10-31T17:45:47.394Z,101378.97
2022-10-31T17:48:15.009Z,101382.78
2022-10-31T17:50:42.771Z,101377.31
2022-10-31T17:53:10.183Z,101382.84
2022-10-31T17:55:37.896Z,101387.72
2022-10-31T17:58:05.903Z,101380.72
2022-10-31T18:00:33.826Z,101388.38
2022-10-31T18:03:03.892Z,101377.72
2022-10-31T18:05:32.243Z,101390.41
2022-10-31T18:08:03.695Z,101381.53
2022-10-31T18:10:32.202Z,101384.28
2022-10-31T18:13:03.023Z,101375.91
2022-10-31T18:15:30.862Z,101371.00
2022-10-31T18:17:58.517Z,101380.03
2022-10-31T18:20:26.305Z,101376.34
2022-10-31T18:22:56.641Z,101379.56
2022-10-31T18:25:24.251Z,101376.56
2022-10-31T18:27:51.895Z,101386.94
2022-10-31T18:30:19.716Z,101379.53
2022-10-31T18:32:51.303Z,101375.06
2022-10-31T18:35:19.050Z,101380.28
2022-10-31T18:37:46.715Z,101384.16
2022-10-31T18:40:36.156Z,101382.91
2022-10-31T18:43:08.238Z,101392.09
2022-10-31T18:45:53.709Z,101387.28
2022-10-31T18:48:37.005Z,101385.22
2022-10-31T18:51:21.338Z,101387.16
2022-10-31T18:53:54.100Z,101389.63
2022-10-31T18:56:22.473Z,101381.22
2022-10-31T18:58:50.904Z,101387.41
2022-10-31T19:01:20.310Z,101386.91
2022-10-31T19:03:54.241Z,101378.19
2022-10-31T19:06:22.896Z,101396.03
2022-10-31T19:09:01.256Z,101391.84
2022-10-31T19:11:44.353Z,101392.03
2022-10-31T19:14:14.822Z,101390.41
2022-10-31T19:16:42.645Z,101394.59
2022-10-31T19:19:11.937Z,101392.16
2022-10-31T19:21:39.460Z,101393.19
2022-10-31T19:24:07.218Z,101391.69
2022-10-31T19:26:35.106Z,101407.63
2022-10-31T19:29:02.680Z,101391.63
2022-10-31T19:31:34.521Z,101401.72
2022-10-31T19:34:04.715Z,101400.25
2022-10-31T19:36:32.535Z,101391.47
2022-10-31T19:39:02.587Z,101406.63
2022-10-31T19:41:45.080Z,101400.47
2022-10-31T19:44:15.121Z,101390.63
2022-10-31T19:46:53.250Z,101394.53
2022-10-31T19:52:10.160Z,101406.03
2022-10-31T19:54:37.799Z,101396.41
2022-10-31T19:57:05.447Z,101404.00
2022-10-31T19:59:38.270Z,101389.09
2022-10-31T20:02:19.714Z,101398.28
2022-10-31T20:04:49.749Z,101405.66
2022-10-31T20:07:17.393Z,101409.81
2022-10-31T20:09:46.372Z,101411.69
2022-10-31T20:12:14.049Z,101417.22
2022-10-31T20:14:43.145Z,101410.56
2022-10-31T20:17:10.836Z,101408.28
2022-10-31T20:19:38.677Z,101409.81
2022-10-31T20:22:20.151Z,101410.94
2022-10-31T20:24:47.788Z,101425.94
2022-10-31T20:27:17.971Z,101421.78
2022-10-31T20:29:54.710Z,101420.75
2022-10-31T20:32:22.428Z,101411.06
2022-10-31T20:34:50.632Z,101417.19
2022-10-31T20:37:18.288Z,101408.16
2022-10-31T20:39:46.108Z,101426.75
2022-10-31T20:42:24.852Z,101420.94
2022-10-31T20:44:52.433Z,101418.91
2022-10-31T20:47:23.322Z,101415.81
2022-10-31T20:49:52.585Z,101414.03
2022-10-31T20:52:20.017Z,101410.69
2022-10-31T20:54:47.488Z,101425.19
2022-10-31T20:58:03.039Z,101422.78
2022-10-31T21:00:51.557Z,101417.41
2022-10-31T21:03:19.873Z,101421.56
2022-10-31T21:06:02.174Z,101421.31
2022-10-31T21:08:32.900Z,101415.94
2022-10-31T21:11:01.288Z,101414.94
2022-10-31T21:13:29.490Z,101418.41
2022-10-31T21:16:04.973Z,101411.50
2022-10-31T21:18:35.074Z,101425.13
2022-10-31T21:21:12.132Z,101426.16
2022-10-31T21:27:27.434Z,101415.88
2022-10-31T21:30:18.454Z,101435.88
2022-10-31T21:32:58.915Z,101426.19
2022-10-31T21:35:48.090Z,101434.03
2022-10-31T21:39:35.674Z,101434.75
2022-10-31T21:42:23.741Z,101433.78
2022-10-31T21:44:57.812Z,101432.97
2022-10-31T21:47:44.583Z,101421.56
2022-10-31T21:50:15.016Z,101419.44
2022-10-31T21:52:43.223Z,101417.56
2022-10-31T21:55:15.704Z,101426.63
2022-10-31T21:58:05.400Z,101416.81
2022-10-31T22:04:44.269Z,101414.31
2022-10-31T22:07:21.764Z,101409.38
2022-10-31T22:10:27.492Z,101403.25
2022-10-31T22:13:02.783Z,101407.75
2022-10-31T22:15:34.962Z,101408.50
2022-10-31T22:18:06.404Z,101414.06
2022-10-31T22:20:45.186Z,101408.03
2022-10-31T22:23:17.635Z,101410.69
2022-10-31T22:25:45.195Z,101418.69
2022-10-31T22:28:15.322Z,101411.69
2022-10-31T22:30:51.616Z,101412.22
2022-10-31T22:33:26.916Z,101406.66
2022-10-31T22:35:58.237Z,101394.25
2022-10-31T22:38:29.429Z,101387.97
2022-10-31T22:41:02.925Z,101390.72
2022-10-31T22:43:30.651Z,101394.34
2022-10-31T22:46:04.903Z,101395.19
2022-10-31T22:48:36.544Z,101397.84
2022-10-31T22:51:11.296Z,101404.84
2022-10-31T22:54:06.010Z,101396.06
2022-10-31T22:56:47.476Z,101404.00
2022-10-31T22:59:19.652Z,101403.16
2022-10-31T23:01:55.157Z,101410.19
2022-10-31T23:05:25.750Z,101413.72
2022-10-31T23:08:01.829Z,101404.97
2022-10-31T23:10:35.806Z,101408.44
2022-10-31T23:13:53.363Z,101393.59
2022-10-31T23:16:22.404Z,101394.50
2022-10-31T23:18:52.465Z,101404.31
2022-10-31T23:21:43.005Z,101386.59
2022-10-31T23:24:13.877Z,101392.63
2022-10-31T23:27:00.372Z,101391.94
2022-10-31T23:29:30.383Z,101397.84
2022-10-31T23:31:59.495Z,101387.38
2022-10-31T23:34:29.578Z,101384.78
2022-10-31T23:39:36.235Z,101389.94
2022-10-31T23:42:06.343Z,101388.13
2022-10-31T23:44:35.391Z,101386.44
2022-10-31T23:47:07.901Z,101384.06
2022-10-31T23:49:40.381Z,101384.09
2022-10-31T23:52:08.749Z,101385.59
2022-10-31T23:54:36.492Z,101388.03
2022-10-31T23:57:06.632Z,101384.38
2022-10-31T23:59:34.386Z,101382.69
